createdAt,value
2023-05-05T00:04:43.516Z,17.89
2023-05-05T00:09:44.840Z,17.83
2023-05-05T00:14:46.146Z,17.79
2023-05-05T00:19:47.604Z,17.79
2023-05-05T00:24:49.023Z,17.75
2023-05-05T00:29:54.036Z,17.70
2023-05-05T00:34:56.157Z,17.66
2023-05-05T00:39:57.714Z,17.59
2023-05-05T00:44:59.149Z,17.58
2023-05-05T00:50:00.581Z,17.56
2023-05-05T00:55:02.495Z,17.52
2023-05-05T01:00:05.889Z,17.54
2023-05-05T01:05:08.755Z,17.55
2023-05-05T01:10:26.841Z,17.49
2023-05-05T01:15:37.829Z,17.49
2023-05-05T01:21:04.629Z,17.47
2023-05-05T01:26:12.701Z,17.43
2023-05-05T01:31:51.323Z,17.42
2023-05-05T01:37:01.727Z,17.35
2023-05-05T01:42:08.118Z,17.33
2023-05-05T01:47:14.514Z,17.18
2023-05-05T01:52:16.819Z,17.08
2023-05-05T01:57:20.976Z,17.06
2023-05-05T02:02:25.846Z,17.01
2023-05-05T02:07:28.024Z,16.84
2023-05-05T02:12:31.429Z,16.89
2023-05-05T02:17:33.145Z,16.80
2023-05-05T02:22:34.641Z,16.81
2023-05-05T02:27:38.731Z,16.79
2023-05-05T02:32:42.757Z,16.75
2023-05-05T02:37:48.271Z,16.61
2023-05-05T02:42:54.176Z,16.66
2023-05-05T02:47:55.660Z,16.64
2023-05-05T02:52:58.955Z,16.61
2023-05-05T02:58:11.153Z,16.60
2023-05-05T03:03:28.141Z,16.55
2023-05-05T03:08:55.484Z,16.47
2023-05-05T03:14:06.953Z,16.37
2023-05-05T03:19:10.838Z,16.32
2023-05-05T03:24:16.855Z,16.41
2023-05-05T03:29:18.236Z,16.43
2023-05-05T03:34:19.535Z,16.42
2023-05-05T03:39:20.792Z,16.34
2023-05-05T03:44:22.094Z,16.33
2023-05-05T03:49:23.412Z,16.27
2023-05-05T03:54:24.722Z,16.18
2023-05-05T03:59:26.245Z,16.17
2023-05-05T04:04:27.744Z,16.17
2023-05-05T04:09:29.148Z,16.13
2023-05-05T04:14:30.451Z,16.01
2023-05-05T04:19:32.702Z,15.87
2023-05-05T04:24:34.017Z,15.94
2023-05-05T04:29:35.386Z,15.82
2023-05-05T04:34:36.880Z,15.79
2023-05-05T04:39:38.140Z,15.84
2023-05-05T04:44:39.701Z,15.83
2023-05-05T04:49:41.226Z,15.79
2023-05-05T04:54:42.602Z,15.80
2023-05-05T04:59:43.910Z,15.79
2023-05-05T05:04:45.242Z,15.77
2023-05-05T05:09:46.784Z,15.78
2023-05-05T05:14:48.090Z,15.74
2023-05-05T05:19:49.361Z,15.77
2023-05-05T05:24:52.031Z,15.78
2023-05-05T05:29:53.316Z,15.92
2023-05-05T05:34:54.575Z,15.95
2023-05-05T05:39:56.801Z,15.89
2023-05-05T05:45:01.579Z,15.97
2023-05-05T05:50:04.723Z,16.13
2023-05-05T05:55:07.258Z,16.22
2023-05-05T06:00:09.218Z,16.26
2023-05-05T06:05:10.824Z,16.33
2023-05-05T06:10:26.751Z,16.48
2023-05-05T06:15:29.088Z,16.60
2023-05-05T06:20:30.506Z,16.77
2023-05-05T06:25:32.225Z,16.92
2023-05-05T06:30:33.940Z,17.15
2023-05-05T06:35:35.282Z,17.35
2023-05-05T06:40:36.669Z,17.34
2023-05-05T06:45:37.988Z,17.45
2023-05-05T06:50:39.269Z,17.58
2023-05-05T06:55:44.517Z,17.59
2023-05-05T07:00:45.928Z,17.50
2023-05-05T07:05:48.326Z,17.54
2023-05-05T07:10:49.717Z,17.66
2023-05-05T07:15:51.050Z,17.82
2023-05-05T07:20:52.524Z,18.05
2023-05-05T07:25:54.976Z,18.12
2023-05-05T07:30:56.246Z,18.44
2023-05-05T07:35:57.575Z,18.64
2023-05-05T07:40:58.889Z,18.79
2023-05-05T07:46:00.312Z,18.89
2023-05-05T07:51:02.052Z,19.23
2023-05-05T07:56:03.690Z,19.53
2023-05-05T08:01:06.473Z,19.61
2023-05-05T08:06:10.505Z,19.88
2023-05-05T08:11:11.838Z,19.99
2023-05-05T08:16:13.561Z,20.02
2023-05-05T08:21:15.323Z,19.96
2023-05-05T08:26:16.645Z,20.02
2023-05-05T08:31:18.083Z,20.02
2023-05-05T08:36:19.505Z,20.17
2023-05-05T08:41:21.014Z,20.43
2023-05-05T08:46:24.459Z,20.72
2023-05-05T08:51:31.718Z,20.80
2023-05-05T08:56:39.566Z,20.68
2023-05-05T09:01:42.107Z,20.62
2023-05-05T09:06:43.435Z,20.68
2023-05-05T09:11:45.641Z,20.81
2023-05-05T09:16:47.010Z,20.90
2023-05-05T09:21:49.231Z,21.02
2023-05-05T09:26:50.597Z,21.35
2023-05-05T09:32:08.092Z,21.46
2023-05-05T09:37:09.433Z,21.51
2023-05-05T09:42:20.063Z,21.70
2023-05-05T09:47:29.317Z,21.85
2023-05-05T09:52:31.950Z,22.27
2023-05-05T09:57:33.955Z,22.51
2023-05-05T10:02:38.502Z,22.90
2023-05-05T10:07:41.802Z,23.28
2023-05-05T10:12:43.165Z,23.60
2023-05-05T10:22:57.296Z,24.50
2023-05-05T10:28:06.255Z,24.46
2023-05-05T10:38:29.609Z,24.77
2023-05-05T10:43:31.871Z,24.59
2023-05-05T10:48:46.870Z,24.28
2023-05-05T10:54:00.300Z,24.22
2023-05-05T10:59:01.821Z,24.15
2023-05-05T11:04:23.579Z,24.24
2023-05-05T11:09:28.741Z,24.42
2023-05-05T11:14:30.020Z,24.55
2023-05-05T11:19:43.740Z,24.49
2023-05-05T11:24:45.132Z,24.52
2023-05-05T11:30:09.569Z,24.95
2023-05-05T11:35:12.389Z,24.88
2023-05-05T11:40:21.717Z,25.17
2023-05-05T11:45:24.569Z,25.44
2023-05-05T11:50:27.111Z,25.88
2023-05-05T11:55:28.537Z,26.10
2023-05-05T12:00:33.835Z,26.15
2023-05-05T12:05:36.899Z,26.20
2023-05-05T12:10:39.076Z,26.18
2023-05-05T12:15:40.545Z,26.74
2023-05-05T12:20:41.979Z,27.02
2023-05-05T12:25:43.391Z,26.92
2023-05-05T12:30:56.567Z,26.83
2023-05-05T12:35:58.111Z,26.91
2023-05-05T12:40:59.471Z,27.03
2023-05-05T12:46:11.885Z,26.60
2023-05-05T12:51:18.953Z,26.75
2023-05-05T12:56:34.823Z,26.97
2023-05-05T13:01:47.555Z,26.98
2023-05-05T13:06:49.573Z,26.48
2023-05-05T13:11:51.407Z,26.25
2023-05-05T13:16:53.087Z,26.36
2023-05-05T13:21:55.848Z,26.57
2023-05-05T13:26:57.231Z,26.49
2023-05-05T13:31:58.759Z,26.67
2023-05-05T13:37:00.068Z,26.83
2023-05-05T13:42:01.350Z,26.85
2023-05-05T13:47:03.047Z,26.83
2023-05-05T13:52:04.653Z,26.81
2023-05-05T13:57:07.800Z,26.77
2023-05-05T14:02:09.259Z,26.92
2023-05-05T14:07:10.531Z,26.93
2023-05-05T14:12:12.291Z,26.83
2023-05-05T14:17:13.725Z,26.51
2023-05-05T14:22:15.511Z,26.52
2023-05-05T14:27:16.846Z,26.45
2023-05-05T14:32:18.251Z,26.22
2023-05-05T14:37:19.611Z,26.04
2023-05-05T14:42:20.903Z,25.88
2023-05-05T14:47:22.246Z,25.82
2023-05-05T14:52:23.622Z,25.50
2023-05-05T14:57:24.921Z,25.35
2023-05-05T15:02:26.354Z,25.13
2023-05-05T15:07:28.954Z,24.96
2023-05-05T15:12:30.356Z,24.86
2023-05-05T15:17:32.224Z,24.68
2023-05-05T15:22:33.856Z,24.62
2023-05-05T15:27:36.802Z,24.43
2023-05-05T15:32:38.225Z,24.23
2023-05-05T15:37:39.671Z,23.37
2023-05-05T15:42:40.943Z,22.70
2023-05-05T15:47:42.332Z,21.76
2023-05-05T15:52:44.099Z,21.86
2023-05-05T15:57:45.405Z,21.72
2023-05-05T16:02:47.355Z,21.93
2023-05-05T16:07:48.692Z,21.95
2023-05-05T16:12:51.888Z,21.88
2023-05-05T16:17:53.308Z,21.59
2023-05-05T16:22:54.633Z,21.21
2023-05-05T16:27:57.335Z,21.42
2023-05-05T16:32:58.624Z,21.19
2023-05-05T16:38:00.196Z,21.40
2023-05-05T16:43:01.799Z,21.34
2023-05-05T16:48:03.247Z,21.31
2023-05-05T16:53:04.837Z,21.26
2023-05-05T16:58:06.229Z,21.28
2023-05-05T17:03:07.672Z,21.27
2023-05-05T17:08:11.787Z,21.27
2023-05-05T17:13:14.460Z,21.35
2023-05-05T17:18:15.876Z,21.32
2023-05-05T17:23:17.202Z,21.33
2023-05-05T17:28:18.680Z,21.35
2023-05-05T17:33:21.976Z,21.38
2023-05-05T17:38:23.772Z,21.28
2023-05-05T17:43:25.205Z,21.18
2023-05-05T17:48:26.619Z,21.13
2023-05-05T17:53:28.108Z,21.17
2023-05-05T17:58:29.417Z,21.14
2023-05-05T18:03:31.205Z,21.02
2023-05-05T18:08:32.734Z,20.96
2023-05-05T18:13:34.163Z,20.97
2023-05-05T18:18:35.824Z,20.95
2023-05-05T18:23:38.219Z,20.86
2023-05-05T18:28:39.541Z,20.83
2023-05-05T18:33:40.850Z,20.84
2023-05-05T18:38:42.123Z,20.82
2023-05-05T18:43:43.424Z,20.72
2023-05-05T18:48:45.212Z,20.64
2023-05-05T18:53:46.489Z,20.61
2023-05-05T18:58:47.797Z,20.57
2023-05-05T19:03:49.615Z,20.57
2023-05-05T19:08:50.989Z,20.57
2023-05-05T19:13:52.315Z,20.50
2023-05-05T19:18:58.457Z,20.53
2023-05-05T19:23:59.788Z,20.52
2023-05-05T19:29:01.234Z,20.47
2023-05-05T19:34:04.269Z,20.36
2023-05-05T19:39:05.610Z,20.29
2023-05-05T19:44:06.936Z,20.21
2023-05-05T19:49:08.242Z,20.18
2023-05-05T19:54:10.176Z,20.09
2023-05-05T19:59:12.263Z,20.05
2023-05-05T20:04:13.578Z,20.00
2023-05-05T20:09:15.172Z,19.98
2023-05-05T20:14:17.152Z,19.93
2023-05-05T20:19:19.081Z,19.86
2023-05-05T20:24:20.434Z,19.83
2023-05-05T20:29:22.475Z,19.75
2023-05-05T20:34:27.617Z,19.68
2023-05-05T20:39:28.969Z,19.57
2023-05-05T20:44:30.892Z,19.58
2023-05-05T20:49:32.695Z,19.57
2023-05-05T20:54:34.103Z,19.52
2023-05-05T20:59:35.453Z,19.48
2023-05-05T21:04:36.869Z,19.39
2023-05-05T21:09:38.229Z,19.40
2023-05-05T21:14:44.407Z,19.38
2023-05-05T21:19:45.710Z,19.33
2023-05-05T21:24:47.177Z,19.28
2023-05-05T21:29:50.947Z,19.16
2023-05-05T21:34:52.318Z,19.01
2023-05-05T21:39:53.959Z,18.95
2023-05-05T21:44:55.373Z,18.96
2023-05-05T21:49:58.155Z,18.86
2023-05-05T21:54:59.503Z,18.73
2023-05-05T22:00:00.829Z,18.68
2023-05-05T22:05:02.111Z,18.62
2023-05-05T22:10:03.707Z,18.59
2023-05-05T22:15:05.623Z,18.47
2023-05-05T22:20:09.236Z,18.41
2023-05-05T22:25:10.945Z,18.41
2023-05-05T22:30:13.182Z,18.37
2023-05-05T22:35:14.521Z,18.36
2023-05-05T22:40:15.960Z,18.34
2023-05-05T22:45:17.350Z,18.29
2023-05-05T22:50:19.289Z,18.31
2023-05-05T22:55:20.950Z,18.29
2023-05-05T23:00:22.643Z,18.30
2023-05-05T23:05:24.476Z,18.22
2023-05-05T23:10:25.949Z,18.14
2023-05-05T23:15:27.415Z,18.11
2023-05-05T23:20:29.421Z,18.14
2023-05-05T23:25:30.677Z,18.14
2023-05-05T23:30:32.170Z,18.02
2023-05-05T23:35:33.664Z,18.06
2023-05-05T23:40:35.001Z,18.07
2023-05-05T23:45:36.260Z,18.04
2023-05-05T23:50:37.566Z,18.05
2023-05-05T23:55:39.433Z,18.02
